createdAt,value
2018-07-09T00:01:39.623Z,1.90
2018-07-09T00:04:08.436Z,1.98
2018-07-09T00:06:36.618Z,1.70
2018-07-09T00:09:05.115Z,1.72
2018-07-09T00:11:33.783Z,2.10
2018-07-09T00:14:02.158Z,1.90
2018-07-09T00:16:30.430Z,1.87
2018-07-09T00:18:58.629Z,2.02
2018-07-09T00:21:27.419Z,1.62
2018-07-09T00:23:55.986Z,2.17
2018-07-09T00:26:24.570Z,2.00
2018-07-09T00:28:52.675Z,2.05
2018-07-09T00:31:20.815Z,2.10
2018-07-09T00:33:48.849Z,1.90
2018-07-09T00:36:17.158Z,2.20
2018-07-09T00:38:45.203Z,2.12
2018-07-09T00:41:13.249Z,2.20
2018-07-09T00:43:41.633Z,2.30
2018-07-09T00:46:10.573Z,2.20
2018-07-09T00:48:38.842Z,1.80
2018-07-09T00:51:07.684Z,2.08
2018-07-09T00:53:35.831Z,2.25
2018-07-09T00:56:04.059Z,2.60
2018-07-09T00:58:32.185Z,2.30
2018-07-09T01:01:00.310Z,2.22
2018-07-09T01:03:28.539Z,2.50
2018-07-09T01:05:56.789Z,2.05
2018-07-09T01:08:25.011Z,2.30
2018-07-09T01:10:58.588Z,2.17
2018-07-09T01:13:32.028Z,2.10
2018-07-09T01:16:00.132Z,2.65
2018-07-09T01:18:28.625Z,3.00
2018-07-09T01:20:57.150Z,2.47
2018-07-09T01:23:25.687Z,2.83
2018-07-09T01:25:53.961Z,2.33
2018-07-09T01:28:22.856Z,2.20
2018-07-09T01:30:51.231Z,2.37
2018-07-09T01:33:19.720Z,3.35
2018-07-09T01:35:47.995Z,2.83
2018-07-09T01:38:16.650Z,2.55
2018-07-09T01:40:44.707Z,2.52
2018-07-09T01:43:13.065Z,2.70
2018-07-09T01:45:41.719Z,2.60
2018-07-09T01:48:10.246Z,2.67
2018-07-09T01:50:38.549Z,2.85
2018-07-09T01:53:06.598Z,2.77
2018-07-09T01:55:34.723Z,2.95
2018-07-09T01:58:02.966Z,3.50
2018-07-09T02:00:31.250Z,2.90
2018-07-09T02:03:00.518Z,3.25
2018-07-09T02:05:28.566Z,3.03
2018-07-09T02:07:56.850Z,3.00
2018-07-09T02:10:25.406Z,2.77
2018-07-09T02:12:54.653Z,2.72
2018-07-09T02:15:23.357Z,2.95
2018-07-09T02:17:51.778Z,3.17
2018-07-09T02:20:20.564Z,3.00
2018-07-09T02:22:49.095Z,3.02
2018-07-09T02:25:17.414Z,3.12
2018-07-09T02:27:46.001Z,3.00
2018-07-09T02:30:14.295Z,2.80
2018-07-09T02:32:42.359Z,3.05
2018-07-09T02:35:10.833Z,3.60
2018-07-09T02:37:39.214Z,3.80
2018-07-09T02:40:07.395Z,3.40
2018-07-09T02:42:36.386Z,3.70
2018-07-09T02:45:04.437Z,3.20
2018-07-09T02:47:32.826Z,3.35
2018-07-09T02:50:01.723Z,3.10
2018-07-09T02:52:29.973Z,3.10
2018-07-09T02:54:58.793Z,3.40
2018-07-09T02:57:27.375Z,3.02
2018-07-09T02:59:55.475Z,3.20
2018-07-09T03:02:24.439Z,2.95
2018-07-09T03:04:52.640Z,2.85
2018-07-09T03:07:20.925Z,3.25
2018-07-09T03:09:49.317Z,3.77
2018-07-09T03:12:17.489Z,3.20
2018-07-09T03:14:45.539Z,3.80
2018-07-09T03:17:14.101Z,3.10
2018-07-09T03:19:42.790Z,3.47
2018-07-09T03:22:11.677Z,3.00
2018-07-09T03:24:39.765Z,3.12
2018-07-09T03:27:08.333Z,3.47
2018-07-09T03:29:36.374Z,3.25
2018-07-09T03:32:04.495Z,3.40
2018-07-09T03:34:33.046Z,3.37
2018-07-09T03:37:01.550Z,3.20
2018-07-09T03:39:29.686Z,3.20
2018-07-09T03:41:58.172Z,3.77
2018-07-09T03:44:26.473Z,3.20
2018-07-09T03:46:55.264Z,3.30
2018-07-09T03:49:23.807Z,3.15
2018-07-09T03:51:52.434Z,3.27
2018-07-09T03:54:20.614Z,3.30
2018-07-09T03:56:48.977Z,3.00
2018-07-09T03:59:17.278Z,2.80
2018-07-09T04:01:45.625Z,2.90
2018-07-09T04:04:14.252Z,2.90
2018-07-09T04:06:42.731Z,2.90
2018-07-09T04:09:10.969Z,2.80
2018-07-09T04:11:39.151Z,2.83
2018-07-09T04:14:07.654Z,2.90
2018-07-09T04:16:36.023Z,3.37
2018-07-09T04:19:04.318Z,3.65
2018-07-09T04:21:32.320Z,3.55
2018-07-09T04:24:00.548Z,3.65
2018-07-09T04:26:28.810Z,3.33
2018-07-09T04:28:57.262Z,2.92
2018-07-09T04:31:25.858Z,2.72
2018-07-09T04:33:53.947Z,2.95
2018-07-09T04:36:22.426Z,3.10
2018-07-09T04:38:51.318Z,3.30
2018-07-09T04:41:19.913Z,3.40
2018-07-09T04:43:48.112Z,3.30
2018-07-09T04:46:16.494Z,3.80
2018-07-09T04:48:44.949Z,3.85
2018-07-09T04:51:14.037Z,4.40
2018-07-09T04:53:42.547Z,6.60
2018-07-09T04:56:10.550Z,5.30
2018-07-09T04:58:38.971Z,4.80
2018-07-09T05:01:07.018Z,5.60
2018-07-09T05:03:35.529Z,4.65
2018-07-09T05:06:04.218Z,4.60
2018-07-09T05:08:32.703Z,4.40
2018-07-09T05:11:01.438Z,4.63
2018-07-09T05:13:29.771Z,6.03
2018-07-09T05:15:58.374Z,5.20
2018-07-09T05:18:27.037Z,4.30
2018-07-09T05:20:55.642Z,4.50
2018-07-09T05:23:23.970Z,4.15
2018-07-09T05:25:52.282Z,5.12
2018-07-09T05:28:20.467Z,5.40
2018-07-09T05:30:48.936Z,4.70
2018-07-09T05:33:17.091Z,4.10
2018-07-09T05:35:45.914Z,4.80
2018-07-09T05:38:14.403Z,5.07
2018-07-09T05:40:42.657Z,4.20
2018-07-09T05:43:10.832Z,5.37
2018-07-09T05:45:39.235Z,4.58
2018-07-09T05:48:07.970Z,4.97
2018-07-09T05:50:36.369Z,4.70
2018-07-09T05:53:04.870Z,4.60
2018-07-09T05:55:33.658Z,4.50
2018-07-09T05:58:02.307Z,5.10
2018-07-09T06:00:30.485Z,4.40
2018-07-09T06:02:58.911Z,4.83
2018-07-09T06:05:26.934Z,5.30
2018-07-09T06:07:55.385Z,4.83
2018-07-09T06:10:23.902Z,5.07
2018-07-09T06:12:52.308Z,4.60
2018-07-09T06:15:20.454Z,4.50
2018-07-09T06:17:48.897Z,4.40
2018-07-09T06:20:17.057Z,4.40
2018-07-09T06:22:45.119Z,5.40
2018-07-09T06:25:13.576Z,4.40
2018-07-09T06:27:42.270Z,4.53
2018-07-09T06:30:10.520Z,4.70
2018-07-09T06:32:38.799Z,4.50
2018-07-09T06:35:07.016Z,5.05
2018-07-09T06:37:35.305Z,4.53
2018-07-09T06:40:03.859Z,4.42
2018-07-09T06:42:32.550Z,4.00
2018-07-09T06:45:00.827Z,4.60
2018-07-09T06:47:29.206Z,4.30
2018-07-09T06:49:57.232Z,4.12
2018-07-09T06:52:25.474Z,3.92
2018-07-09T06:54:54.343Z,3.50
2018-07-09T06:57:22.622Z,3.80
2018-07-09T06:59:50.944Z,3.50
2018-07-09T07:02:19.587Z,3.60
2018-07-09T07:04:47.663Z,3.40
2018-07-09T07:07:15.906Z,3.60
2018-07-09T07:09:44.270Z,3.15
2018-07-09T07:12:13.300Z,3.67
2018-07-09T07:14:41.331Z,3.20
2018-07-09T07:17:09.749Z,3.25
2018-07-09T07:19:38.039Z,3.10
2018-07-09T07:22:06.442Z,3.10
2018-07-09T07:24:34.974Z,2.87
2018-07-09T07:27:03.281Z,3.20
2018-07-09T07:29:31.466Z,2.92
2018-07-09T07:31:59.997Z,3.50
2018-07-09T07:34:28.531Z,2.80
2018-07-09T07:36:56.888Z,3.20
2018-07-09T07:39:25.306Z,3.90
2018-07-09T07:41:54.062Z,3.40
2018-07-09T07:44:22.851Z,3.20
2018-07-09T07:46:51.730Z,3.42
2018-07-09T07:49:20.609Z,2.87
2018-07-09T07:51:49.100Z,3.27
2018-07-09T07:54:17.161Z,2.95
2018-07-09T07:56:45.291Z,3.05
2018-07-09T07:59:13.946Z,3.30
2018-07-09T08:01:42.330Z,2.90
2018-07-09T08:04:10.431Z,3.30
2018-07-09T08:06:39.194Z,2.80
2018-07-09T08:09:07.582Z,2.70
2018-07-09T08:11:48.555Z,3.12
2018-07-09T08:14:04.604Z,3.20
2018-07-09T08:16:33.321Z,3.40
2018-07-09T08:19:02.309Z,3.02
2018-07-09T08:21:30.531Z,3.23
2018-07-09T08:23:59.492Z,3.00
2018-07-09T08:26:27.838Z,2.90
2018-07-09T08:28:56.239Z,2.77
2018-07-09T08:31:24.441Z,2.77
2018-07-09T08:33:52.891Z,2.98
2018-07-09T08:36:21.176Z,2.85
2018-07-09T08:38:49.345Z,2.60
2018-07-09T08:41:17.821Z,3.02
2018-07-09T08:43:46.387Z,3.00
2018-07-09T08:46:14.747Z,2.60
2018-07-09T08:48:43.265Z,2.40
2018-07-09T08:51:11.631Z,2.60
2018-07-09T08:53:39.920Z,2.67
2018-07-09T08:56:08.306Z,2.00
2018-07-09T08:58:36.682Z,2.58
2018-07-09T09:01:05.049Z,2.35
2018-07-09T09:03:33.159Z,2.08
2018-07-09T09:06:01.250Z,2.17
2018-07-09T09:08:29.309Z,1.90
2018-07-09T09:10:57.378Z,3.00
2018-07-09T09:13:25.735Z,2.00
2018-07-09T09:15:54.118Z,2.17
2018-07-09T09:18:22.594Z,2.20
2018-07-09T09:20:50.880Z,1.67
2018-07-09T09:23:18.920Z,1.70
2018-07-09T09:25:47.271Z,1.83
2018-07-09T09:28:15.410Z,1.87
2018-07-09T09:30:44.289Z,1.80
2018-07-09T09:33:12.371Z,1.70
2018-07-09T09:35:40.734Z,1.80
2018-07-09T09:38:08.786Z,1.50
2018-07-09T09:40:36.805Z,1.60
2018-07-09T09:43:04.936Z,2.60
2018-07-09T09:45:33.026Z,1.65
2018-07-09T09:48:01.711Z,1.80
2018-07-09T09:50:30.106Z,1.57
2018-07-09T09:52:58.977Z,1.80
2018-07-09T09:55:27.070Z,2.00
2018-07-09T09:57:55.435Z,1.80
2018-07-09T10:00:29.105Z,1.60
2018-07-09T10:02:57.173Z,1.60
2018-07-09T10:05:25.591Z,1.67
2018-07-09T10:07:53.704Z,1.80
2018-07-09T10:10:21.800Z,1.60
2018-07-09T10:12:50.222Z,1.60
2018-07-09T10:15:18.234Z,1.70
2018-07-09T10:17:46.974Z,1.72
2018-07-09T10:20:15.464Z,1.30
2018-07-09T10:22:43.811Z,1.40
2018-07-09T10:25:12.058Z,1.20
2018-07-09T10:27:40.610Z,1.62
2018-07-09T10:30:08.848Z,1.50
2018-07-09T10:32:37.134Z,1.30
2018-07-09T10:35:05.934Z,1.90
2018-07-09T10:37:34.628Z,1.50
2018-07-09T10:40:03.662Z,2.03
2018-07-09T10:42:31.754Z,1.60
2018-07-09T10:45:01.094Z,1.50
2018-07-09T10:47:29.713Z,1.80
2018-07-09T10:49:58.123Z,2.50
2018-07-09T10:52:27.133Z,1.70
2018-07-09T10:54:55.632Z,1.73
2018-07-09T10:57:23.915Z,2.10
2018-07-09T10:59:52.195Z,1.60
2018-07-09T11:02:20.363Z,1.75
2018-07-09T11:04:48.913Z,1.60
2018-07-09T11:07:17.424Z,1.70
2018-07-09T11:09:46.082Z,1.82
2018-07-09T11:12:14.186Z,2.07
2018-07-09T11:14:42.369Z,1.80
2018-07-09T11:17:10.602Z,1.60
2018-07-09T11:19:39.230Z,1.90
2018-07-09T11:22:07.696Z,1.82
2018-07-09T11:24:36.700Z,1.80
2018-07-09T11:27:05.090Z,1.80
2018-07-09T11:29:33.428Z,2.00
2018-07-09T11:32:01.843Z,1.80
2018-07-09T11:34:30.108Z,2.10
2018-07-09T11:36:58.218Z,1.87
2018-07-09T11:39:26.302Z,1.62
2018-07-09T11:41:54.335Z,1.72
2018-07-09T11:44:22.707Z,1.85
2018-07-09T11:46:51.285Z,1.75
2018-07-09T11:49:19.444Z,1.70
2018-07-09T11:51:48.130Z,1.47
2018-07-09T11:54:16.361Z,1.60
2018-07-09T11:56:44.453Z,1.70
2018-07-09T11:59:13.455Z,1.70
2018-07-09T12:01:41.481Z,1.80
2018-07-09T12:04:09.735Z,1.45
2018-07-09T12:06:38.358Z,1.32
2018-07-09T12:09:06.619Z,1.40
2018-07-09T12:11:35.177Z,1.40
2018-07-09T12:14:03.559Z,1.40
2018-07-09T12:16:31.709Z,2.20
2018-07-09T12:19:00.202Z,2.47
2018-07-09T12:21:28.231Z,1.80
2018-07-09T12:23:56.726Z,1.50
2018-07-09T12:26:25.149Z,1.80
2018-07-09T12:28:53.726Z,2.00
2018-07-09T12:31:22.326Z,1.67
2018-07-09T12:33:50.774Z,1.70
2018-07-09T12:36:18.907Z,2.02
2018-07-09T12:38:47.072Z,1.82
2018-07-09T12:41:15.651Z,1.95
2018-07-09T12:43:44.024Z,2.15
2018-07-09T12:46:12.951Z,2.17
2018-07-09T12:48:41.803Z,1.80
2018-07-09T12:51:10.146Z,1.90
2018-07-09T12:53:39.077Z,2.00
2018-07-09T12:56:15.613Z,1.50
2018-07-09T12:58:48.119Z,2.10
2018-07-09T13:01:17.330Z,2.20
2018-07-09T13:03:46.223Z,2.00
2018-07-09T13:06:14.726Z,1.70
2018-07-09T13:08:43.414Z,2.35
2018-07-09T13:11:11.563Z,1.70
2018-07-09T13:13:46.557Z,1.60
2018-07-09T13:16:21.905Z,1.60
2018-07-09T13:18:55.894Z,2.30
2018-07-09T13:21:28.572Z,1.67
2018-07-09T13:23:59.660Z,1.50
2018-07-09T13:26:32.475Z,1.80
2018-07-09T13:29:05.757Z,1.40
2018-07-09T13:31:38.807Z,1.70
2018-07-09T13:34:09.627Z,1.30
2018-07-09T13:36:41.900Z,2.20
2018-07-09T13:39:16.814Z,1.85
2018-07-09T13:41:51.622Z,1.37
2018-07-09T13:44:26.839Z,1.20
2018-07-09T13:46:59.764Z,1.40
2018-07-09T13:49:32.593Z,1.42
2018-07-09T13:52:06.450Z,1.50
2018-07-09T13:54:35.852Z,1.10
2018-07-09T13:57:05.208Z,1.60
2018-07-09T13:59:41.623Z,1.83
2018-07-09T14:02:20.451Z,1.70
2018-07-09T14:04:52.923Z,1.37
2018-07-09T14:07:22.366Z,1.80
2018-07-09T14:09:55.146Z,1.50
2018-07-09T14:12:30.143Z,1.17
2018-07-09T14:15:00.076Z,1.50
2018-07-09T14:17:34.353Z,1.20
2018-07-09T14:20:12.138Z,1.32
2018-07-09T14:22:42.938Z,1.40
2018-07-09T14:25:14.209Z,1.62
2018-07-09T14:27:44.801Z,1.20
2018-07-09T14:30:21.080Z,1.53
2018-07-09T14:32:49.855Z,1.40
2018-07-09T14:35:21.439Z,1.15
2018-07-09T14:37:52.302Z,1.57
2018-07-09T14:40:26.876Z,1.37
2018-07-09T14:42:56.826Z,1.60
2018-07-09T14:45:30.568Z,1.40
2018-07-09T14:48:05.063Z,1.62
2018-07-09T14:50:37.623Z,1.60
2018-07-09T14:53:09.014Z,1.47
2018-07-09T14:55:40.192Z,1.20
2018-07-09T14:58:12.231Z,1.85
2018-07-09T15:00:46.906Z,1.17
2018-07-09T15:03:17.129Z,1.40
2018-07-09T15:05:48.715Z,1.82
2018-07-09T15:08:21.671Z,1.50
2018-07-09T15:10:49.910Z,1.55
2018-07-09T15:13:18.189Z,1.20
2018-07-09T15:15:46.633Z,1.60
2018-07-09T15:18:15.210Z,1.55
2018-07-09T15:20:43.669Z,1.40
2018-07-09T15:23:11.689Z,2.00
2018-07-09T15:25:40.008Z,2.00
2018-07-09T15:28:08.080Z,1.70
2018-07-09T15:30:36.370Z,1.40
2018-07-09T15:33:04.626Z,1.70
2018-07-09T15:35:32.667Z,2.25
2018-07-09T15:38:00.988Z,2.87
2018-07-09T15:40:29.125Z,1.70
2018-07-09T15:42:57.217Z,1.60
2018-07-09T15:45:25.637Z,2.00
2018-07-09T15:47:53.923Z,1.70
2018-07-09T15:50:22.014Z,1.40
2018-07-09T15:52:50.146Z,1.90
2018-07-09T15:55:18.654Z,1.72
2018-07-09T15:57:47.210Z,1.90
2018-07-09T16:00:15.287Z,1.30
2018-07-09T16:02:43.630Z,3.63
2018-07-09T16:05:11.738Z,1.40
2018-07-09T16:07:39.870Z,1.77
2018-07-09T16:10:08.310Z,1.65
2018-07-09T16:12:36.382Z,1.90
2018-07-09T16:15:04.947Z,2.30
2018-07-09T16:17:32.978Z,2.02
2018-07-09T16:20:01.782Z,1.60
2018-07-09T16:22:29.802Z,1.77
2018-07-09T16:24:59.809Z,1.60
2018-07-09T16:27:31.523Z,1.80
2018-07-09T16:30:04.507Z,1.80
2018-07-09T16:32:39.672Z,1.50
2018-07-09T16:35:14.438Z,1.77
2018-07-09T16:37:45.502Z,2.00
2018-07-09T16:40:15.104Z,1.85
2018-07-09T16:42:48.958Z,3.05
2018-07-09T16:45:23.557Z,2.20
2018-07-09T16:47:56.435Z,3.60
2018-07-09T16:50:28.804Z,5.03
2018-07-09T16:53:00.164Z,2.98
2018-07-09T16:55:36.304Z,2.42
2018-07-09T16:58:06.831Z,2.02
2018-07-09T17:00:40.012Z,1.80
2018-07-09T17:03:08.419Z,2.20
2018-07-09T17:05:37.283Z,1.60
2018-07-09T17:08:05.709Z,1.50
2018-07-09T17:10:33.781Z,1.50
2018-07-09T17:13:02.303Z,1.10
2018-07-09T17:15:30.549Z,1.40
2018-07-09T17:17:58.962Z,1.30
2018-07-09T17:20:27.149Z,1.67
2018-07-09T17:22:55.345Z,1.42
2018-07-09T17:25:23.506Z,1.60
2018-07-09T17:27:51.875Z,1.60
2018-07-09T17:30:20.098Z,1.30
2018-07-09T17:32:48.490Z,1.40
2018-07-09T17:35:16.802Z,1.98
2018-07-09T17:37:44.883Z,1.50
2018-07-09T17:40:12.892Z,1.40
2018-07-09T17:42:41.107Z,1.80
2018-07-09T17:45:09.234Z,1.77
2018-07-09T17:47:37.356Z,1.32
2018-07-09T17:50:05.993Z,1.70
2018-07-09T17:52:34.002Z,1.50
2018-07-09T17:55:02.087Z,1.50
2018-07-09T17:57:30.586Z,1.50
2018-07-09T17:59:58.841Z,1.37
2018-07-09T18:02:26.845Z,1.67
2018-07-09T18:04:55.070Z,1.65
2018-07-09T18:07:23.307Z,2.50
2018-07-09T18:09:51.294Z,2.33
2018-07-09T18:12:19.297Z,4.17
2018-07-09T18:14:48.295Z,2.17
2018-07-09T18:17:16.675Z,1.30
2018-07-09T18:19:44.939Z,1.70
2018-07-09T18:22:13.166Z,1.60
2018-07-09T18:24:41.356Z,1.50
2018-07-09T18:27:09.606Z,1.70
2018-07-09T18:29:37.719Z,1.37
2018-07-09T18:32:05.921Z,1.80
2018-07-09T18:34:34.215Z,1.90
2018-07-09T18:37:02.453Z,1.80
2018-07-09T18:39:30.870Z,2.00
2018-07-09T18:41:59.241Z,2.15
2018-07-09T18:44:28.075Z,1.50
2018-07-09T18:46:56.200Z,1.65
2018-07-09T18:49:24.751Z,1.37
2018-07-09T18:51:52.945Z,1.72
2018-07-09T18:54:21.754Z,1.70
2018-07-09T18:56:50.051Z,1.45
2018-07-09T18:59:18.515Z,1.57
2018-07-09T19:01:46.793Z,1.80
2018-07-09T19:04:14.868Z,1.65
2018-07-09T19:06:53.027Z,1.50
2018-07-09T19:09:22.275Z,2.87
2018-07-09T19:11:50.845Z,2.22
2018-07-09T19:14:19.702Z,2.10
2018-07-09T19:16:53.866Z,1.60
2018-07-09T19:19:27.706Z,1.80
2018-07-09T19:21:59.373Z,1.50
2018-07-09T19:24:26.919Z,1.50
2018-07-09T19:26:54.715Z,1.40
2018-07-09T19:29:22.422Z,1.70
2018-07-09T19:31:50.046Z,1.70
2018-07-09T19:34:17.685Z,1.50
2018-07-09T19:36:45.242Z,1.30
2018-07-09T19:39:13.456Z,1.87
2018-07-09T19:41:41.138Z,2.02
2018-07-09T19:44:08.666Z,1.60
2018-07-09T19:46:36.163Z,1.55
2018-07-09T19:49:04.227Z,6.97
2018-07-09T19:51:31.945Z,3.35
2018-07-09T19:53:59.910Z,2.20
2018-07-09T19:56:27.366Z,1.77
2018-07-09T19:58:56.104Z,1.50
2018-07-09T20:01:23.765Z,1.67
2018-07-09T20:03:51.271Z,1.50
2018-07-09T20:06:18.768Z,2.20
2018-07-09T20:08:51.672Z,2.70
2018-07-09T20:11:24.385Z,2.08
2018-07-09T20:14:08.288Z,2.87
2018-07-09T20:16:41.137Z,1.80
2018-07-09T20:19:08.820Z,1.82
2018-07-09T20:21:36.413Z,2.00
2018-07-09T20:24:04.167Z,1.60
2018-07-09T20:26:31.710Z,1.60
2018-07-09T20:28:59.251Z,2.00
2018-07-09T20:31:27.458Z,1.73
2018-07-09T20:33:55.223Z,1.92
2018-07-09T20:36:22.703Z,1.85
2018-07-09T20:38:50.449Z,1.52
2018-07-09T20:41:18.518Z,1.50
2018-07-09T20:43:46.267Z,2.20
2018-07-09T20:46:13.726Z,1.67
2018-07-09T20:48:41.498Z,1.70
2018-07-09T20:51:09.034Z,1.70
2018-07-09T20:53:36.831Z,2.20
2018-07-09T20:56:04.221Z,1.70
2018-07-09T20:58:31.628Z,2.30
2018-07-09T21:00:59.129Z,3.30
2018-07-09T21:03:26.616Z,6.70
2018-07-09T21:05:54.083Z,3.52
2018-07-09T21:08:21.486Z,2.27
2018-07-09T21:10:48.925Z,2.60
2018-07-09T21:13:16.876Z,3.00
2018-07-09T21:15:44.461Z,2.20
2018-07-09T21:18:11.905Z,2.35
2018-07-09T21:20:39.326Z,1.75
2018-07-09T21:23:06.963Z,2.05
2018-07-09T21:25:34.411Z,2.15
2018-07-09T21:28:02.263Z,1.82
2018-07-09T21:30:30.022Z,1.90
2018-07-09T21:32:58.097Z,1.82
2018-07-09T21:35:26.115Z,1.60
2018-07-09T21:37:53.880Z,2.00
2018-07-09T21:40:21.289Z,10.85
2018-07-09T21:42:48.829Z,2.10
2018-07-09T21:45:16.701Z,1.85
2018-07-09T21:47:44.143Z,2.00
2018-07-09T21:50:11.836Z,2.12
2018-07-09T21:52:39.603Z,2.20
2018-07-09T21:55:07.163Z,1.90
2018-07-09T21:57:34.610Z,1.97
2018-07-09T22:00:02.893Z,2.50
2018-07-09T22:02:30.711Z,1.52
2018-07-09T22:04:58.540Z,3.75
2018-07-09T22:07:26.410Z,2.13
2018-07-09T22:09:54.338Z,2.08
2018-07-09T22:12:21.830Z,2.02
2018-07-09T22:14:49.902Z,1.90
2018-07-09T22:17:17.626Z,2.10
2018-07-09T22:19:48.533Z,1.70
2018-07-09T22:22:16.005Z,1.60
2018-07-09T22:24:43.705Z,2.00
2018-07-09T22:27:11.265Z,1.70
2018-07-09T22:29:39.449Z,1.98
2018-07-09T22:32:08.035Z,1.90
2018-07-09T22:34:36.933Z,1.75
2018-07-09T22:37:05.097Z,2.00
2018-07-09T22:39:33.180Z,1.80
2018-07-09T22:42:02.343Z,2.30
2018-07-09T22:44:30.853Z,1.80
2018-07-09T22:46:58.895Z,1.72
2018-07-09T22:49:27.587Z,1.80
2018-07-09T22:51:56.199Z,1.70
2018-07-09T22:54:24.813Z,1.60
2018-07-09T22:56:52.957Z,2.35
2018-07-09T22:59:21.197Z,2.08
2018-07-09T23:01:49.614Z,1.80
2018-07-09T23:04:18.099Z,1.77
2018-07-09T23:06:47.207Z,2.27
2018-07-09T23:10:22.794Z,1.65
2018-07-09T23:12:56.640Z,1.93
2018-07-09T23:16:33.533Z,1.80
2018-07-09T23:19:07.817Z,2.25
2018-07-09T23:21:43.442Z,1.87
2018-07-09T23:24:11.065Z,2.00
2018-07-09T23:26:38.503Z,1.70
2018-07-09T23:29:06.122Z,1.60
2018-07-09T23:31:33.850Z,1.95
2018-07-09T23:34:01.721Z,2.30
2018-07-09T23:36:29.687Z,1.70
2018-07-09T23:38:57.223Z,1.87
2018-07-09T23:41:24.689Z,2.22
2018-07-09T23:43:52.270Z,1.90
2018-07-09T23:46:20.132Z,1.80
2018-07-09T23:48:47.994Z,1.92
2018-07-09T23:51:15.763Z,1.80
2018-07-09T23:53:44.037Z,2.10
2018-07-09T23:56:16.159Z,2.20
2018-07-09T23:59:49.622Z,2.47
